Latest Coastal Weather Observations for Cape Borda

IDT60701

Issued at 7:22 am EST Monday 21 May 2018 (issued every 10 minutes, with the page automatically refreshed every 10 minutes)

About coastal observations | Map of coastal stations | Coastal observations for TAS | Marine services | Other Formats
Station Details ID: 022823 Name: CAPE BORDA Lat: -35.75 Lon: 136.60 Height: 158.0 m
Data from the previous 72 hours. | See also: Recent months at Cape Borda
Date/Time
EST
Temp
°C
Wind Pressure Rain since
9am
mm
Weather Cloud Vis
km
Sea
Height
m
Swell
Dir  Spd
kts
Gust
kts
hPa Trend Height
m
Period
s
Dir
21/07:00am 13.6 WSW 13 18 1029.4 - 0.0 - - - - - - -
21/06:30am 13.4 WSW 13 18 1029.2 - 0.0 - - - - - - -
21/06:00am 13.4 WSW 12 18 1029.1 - 0.0 - - - - - - -
21/05:30am 13.4 WSW 11 16 1028.8 - 0.0 - - - - - - -
21/05:00am 13.4 WSW 12 20 1028.8 - 0.0 - - - - - - -
21/04:30am 13.5 WSW 12 17 1028.8 - 0.0 - - - - - - -
21/04:00am 13.5 WSW 14 18 1029.0 - 0.0 - - - - - - -
21/03:30am 13.7 WSW 13 17 1029.1 - 0.0 - - - - - - -
21/03:00am 13.6 WSW 11 18 1029.2 - 0.0 - - - - - - -
21/02:30am 13.5 SW 12 17 1029.2 - 0.0 - - - - - - -
21/02:00am 13.5 SW 13 19 1029.4 - 0.0 - - - - - - -
21/01:30am 13.4 SW 13 17 1029.5 - 0.0 - - - - - - -
21/01:00am 13.3 WSW 11 16 1029.7 - 0.0 - - - - - - -
21/12:30am 13.3 SW 11 16 1029.6 - 0.0 - - - - - - -
21/12:00am 13.3 WSW 12 19 1029.8 - 0.0 - - - - - - -
 
Date/Time
EST
Temp
°C
Wind Pressure Rain since
9am
mm
Weather Cloud Vis
km
Sea
Height
m
Swell
Dir  Spd
kts
Gust
kts
hPa Trend Height
m
Period
s
Dir
20/11:30pm 13.5 SW 13 18 1029.8 - 0.0 - - - - - - -
20/11:00pm 13.4 WSW 14 22 1029.7 - 0.0 - - - - - - -
20/10:30pm 13.5 W 13 20 1029.7 - 0.0 - - - - - - -
20/10:00pm 13.6 WSW 11 16 1029.6 - 0.0 - - - - - - -
20/09:30pm 13.6 WSW 11 16 1029.5 - 0.0 - - - - - - -
20/09:00pm 13.6 WSW 12 17 1029.4 - 0.0 - - - - - - -
20/08:30pm 13.7 WSW 12 16 1029.4 - 0.0 - - - - - - -
20/08:00pm 13.7 WSW 13 19 1029.2 - 0.0 - - - - - - -
20/07:30pm 13.7 WSW 13 19 1029.1 - 0.0 - - - - - - -
20/07:00pm 13.9 WSW 13 20 1029.0 - 0.0 - - - - - - -
20/06:30pm 13.7 WSW 13 22 1028.9 - 0.0 - - - - - - -
20/06:00pm 13.7 WSW 12 20 1028.8 - 0.0 - - - - - - -
20/05:30pm 13.9 WSW 11 17 1028.9 - 0.0 - - - - - - -
20/05:00pm 13.8 WSW 12 18 1029.0 - 0.0 - - - - - - -
20/04:30pm 14.0 WSW 11 17 1028.7 - 0.0 - - - - - - -
20/04:00pm 14.2 W 11 15 1028.5 - 0.0 - - - - - - -
20/03:30pm 13.8 WSW 12 19 1028.7 R 0.0 Fine Mostly cloudy 35 <0.5 3.8 7 SW
20/03:00pm 14.0 WSW 10 14 1028.8 - 0.0 - - - - - - -
20/02:30pm 13.7 SW 12 17 1028.8 - 0.0 - - - - - - -
20/02:00pm 14.0 WSW 11 16 1028.8 - 0.0 - - - - - - -
20/01:30pm 14.2 WSW 12 16 1028.8 - 0.0 - - - - - - -
20/01:00pm 14.0 WSW 13 18 1029.3 - 0.0 - - - - - - -
20/12:30pm 13.9 W 12 17 1029.5 - 0.0 - - - - - - -
20/12:00pm 14.2 WSW 11 15 1029.6 - 0.0 - - - - - - -
20/11:30am 14.0 WSW 11 15 1029.7 - 0.0 - - - - - - -
20/11:00am 13.8 WSW 9 13 1029.9 - 0.0 - - - - - - -
20/10:30am 13.7 SW 9 13 1029.8 - 0.0 - - - - - - -
20/10:00am 13.6 WSW 10 14 1029.6 - 0.0 - - - - - - -
20/09:30am 13.5 WSW 10 13 1029.6 R 0.2 Fine Cloudy 35 <0.1 3.0 6 SW
20/09:00am 13.1 SW 8 13 1029.4 - 0.2 - - - - - - -
20/08:30am 13.0 SW 8 11 1029.1 - 0.2 - - - - - - -
20/08:00am 12.8 SW 12 17 1028.8 - 0.2 - - - - - - -
20/07:30am 12.8 SW 8 11 1028.6 - 0.2 - - - - - - -
20/07:00am 12.6 SW 9 13 1028.6 - 0.2 - - - - - - -
20/06:30am 12.8 SW 9 13 1028.2 - 0.2 - - - - - - -
20/06:00am 12.5 SW 9 13 1028.2 - 0.2 - - - - - - -
20/05:30am 12.6 SW 8 11 1028.0 - 0.2 - - - - - - -
20/05:00am 12.8 SW 9 13 1027.9 - 0.2 - - - - - - -
20/04:30am 13.1 WSW 8 12 1027.8 - 0.2 - - - - - - -
20/04:00am 13.0 SW 8 11 1027.8 - 0.2 - - - - - - -
20/03:30am 12.9 WSW 9 12 1028.0 - 0.2 - - - - - - -
20/03:00am 12.9 WSW 8 13 1028.0 - 0.2 - - - - - - -
20/02:30am 13.0 SW 7 10 1027.9 - 0.2 - - - - - - -
20/02:00am 12.8 SSW 7 12 1028.0 - 0.2 - - - - - - -
20/01:30am 12.8 SW 8 13 1028.1 - 0.2 - - - - - - -
20/01:00am 11.8 S 7 8 1028.1 - 0.2 - - - - - - -
20/12:30am 12.1 S 5 8 1028.2 - 0.2 - - - - - - -
20/12:00am 12.0 S 5 7 1028.5 - 0.2 - - - - - - -
 
Date/Time
EST
Temp
°C
Wind Pressure Rain since
9am
mm
Weather Cloud Vis
km
Sea
Height
m
Swell
Dir  Spd
kts
Gust
kts
hPa Trend Height
m
Period
s
Dir
19/11:30pm 12.0 S 6 7 1028.6 - 0.2 - - - - - - -
19/11:00pm 12.3 S 6 9 1028.6 - 0.2 - - - - - - -
19/10:30pm 12.1 SSE 5 7 1028.6 - 0.2 - - - - - - -
19/10:00pm 11.9 SSE 6 8 1028.6 - 0.2 - - - - - - -
19/09:30pm 12.0 SSE 7 10 1028.7 - 0.2 - - - - - - -
19/09:00pm 12.2 S 4 6 1028.7 - 0.2 - - - - - - -
19/08:30pm 12.4 S 6 8 1028.6 - 0.2 - - - - - - -
19/08:00pm 12.3 S 7 9 1028.6 - 0.2 - - - - - - -
19/07:30pm 12.0 SSE 5 7 1028.4 - 0.2 - - - - - - -
19/07:00pm 12.3 SSE 6 6 1028.1 - 0.2 - - - - - - -
19/06:30pm 12.5 SSE 6 8 1027.9 - 0.2 - - - - - - -
19/06:00pm 12.8 S 3 5 1027.9 - 0.2 - - - - - - -
19/05:30pm 13.0 S 7 11 1027.9 - 0.2 - - - - - - -
19/05:00pm 13.4 S 7 10 1027.8 - 0.2 - - - - - - -
19/04:30pm 13.9 S 7 11 1027.8 - 0.2 - - - - - - -
19/04:00pm 13.6 S 9 11 1027.8 - 0.2 - - - - - - -
19/03:30pm 14.0 S 11 14 1027.6 F 0.2 Fine Mostly cloudy 35 <0.1 3.5 8 SW
19/03:00pm 14.8 S 9 14 1027.5 - 0.2 - - - - - - -
19/02:30pm 15.5 S 7 11 1027.6 - 0.2 - - - - - - -
19/02:00pm 14.9 SSE 8 12 1027.8 - 0.2 - - - - - - -
19/01:30pm 15.4 SE 7 10 1028.0 - 0.2 - - - - - - -
19/01:00pm 15.0 S 10 15 1028.4 - 0.0 - - - - - - -
19/12:30pm 14.1 SSW 8 11 1028.8 - 0.0 - - - - - - -
19/12:00pm 13.8 SSW 8 11 1029.0 - 0.0 - - - - - - -
19/11:30am 14.3 S 9 14 1029.0 - 0.0 - - - - - - -
19/11:00am 13.4 S 8 11 1029.1 - 0.0 - - - - - - -
19/10:30am 13.1 SSE 7 9 1029.2 - 0.0 - - - - - - -
19/10:00am 12.2 SSE 7 9 1029.1 - 0.0 - - - - - - -
19/09:30am 11.6 SSE 8 9 1029.1 R 2.4 Fine Mostly cloudy 30 <0.1 4.3 8 SW
19/09:00am 11.2 SSE 8 9 1028.8 - 2.4 - - - - - - -
19/08:30am 10.8 SSE 8 10 1028.6 - 2.4 - - - - - - -
19/08:00am 10.8 SSE 9 11 1028.4 - 2.4 - - - - - - -
19/07:30am 10.7 SSE 9 10 1028.0 - 2.4 - - - - - - -
19/07:00am 10.5 SSE 7 9 1027.8 - 2.4 - - - - - - -
19/06:30am 10.2 SSE 8 9 1027.7 - 2.4 - - - - - - -
19/06:00am 9.9 SSE 8 9 1027.5 - 2.4 - - - - - - -
19/05:30am 9.4 SSE 9 9 1027.2 - 2.4 - - - - - - -
19/05:00am 9.3 SSE 9 9 1027.1 - 2.4 - - - - - - -
19/04:30am 9.6 SSE 9 11 1027.1 - 2.4 - - - - - - -
19/04:00am 9.6 SSE 10 12 1027.1 - 2.4 - - - - - - -
19/03:30am 10.0 SSE 11 14 1027.1 - 2.4 - - - - - - -
19/03:00am 10.3 SSE 12 15 1026.9 - 2.4 - - - - - - -
19/02:30am 10.0 SSE 9 11 1026.8 - 2.4 - - - - - - -
19/02:00am 10.4 SSE 9 12 1026.9 - 2.4 - - - - - - -
19/01:30am 10.5 SSE 11 14 1026.9 - 2.4 - - - - - - -
19/01:00am 10.4 SSE 11 14 1027.2 - 2.4 - - - - - - -
19/12:30am 10.7 SSE 11 13 1027.4 - 2.4 - - - - - - -
19/12:00am 10.7 SSE 10 12 1027.5 - 2.4 - - - - - - -
 
Date/Time
EST
Temp
°C
Wind Pressure Rain since
9am
mm
Weather Cloud Vis
km
Sea
Height
m
Swell
Dir  Spd
kts
Gust
kts
hPa Trend Height
m
Period
s
Dir
18/11:30pm 10.8 SSE 11 13 1027.5 - 2.4 - - - - - - -
18/11:00pm 10.7 SSE 9 11 1027.7 - 2.4 - - - - - - -
18/10:30pm 10.8 SSE 9 11 1027.7 - 2.4 - - - - - - -
18/10:00pm 11.0 SSE 9 11 1027.6 - 2.4 - - - - - - -
18/09:30pm 11.2 SSE 9 11 1027.5 - 2.4 - - - - - - -
18/09:00pm 11.7 SSE 10 12 1027.3 - 2.4 - - - - - - -
18/08:30pm 12.0 S 10 12 1027.1 - 2.4 - - - - - - -
18/08:00pm 12.4 S 9 11 1027.1 - 2.4 - - - - - - -
18/07:30pm 13.0 S 8 11 1026.9 - 2.4 - - - - - - -
18/07:00pm 12.9 S 8 10 1026.9 - 2.4 - - - - - - -
18/06:30pm 12.5 S 7 9 1026.8 - 2.4 - - - - - - -
18/06:00pm 12.8 S 8 10 1026.8 - 2.4 - - - - - - -
18/05:30pm 13.5 S 10 15 1026.8 - 2.4 - - - - - - -
18/05:00pm 14.1 S 11 17 1026.9 - 2.4 - - - - - - -
18/04:30pm 14.7 SSW 13 18 1026.9 - 2.4 - - - - - - -
18/04:00pm 15.2 SSW 12 17 1026.9 - 2.4 - - - - - - -
18/03:30pm 14.6 SW 17 21 1027.1 F 2.4 Distant precip. Mostly cloudy 15 1 4.2 8 SW
18/03:00pm 15.4 SW 17 22 1027.2 - 2.4 - - - - - - -
18/02:30pm 16.2 SW 13 17 1027.5 - 2.4 - - - - - - -
18/02:00pm 15.7 SW 14 19 1027.8 - 2.4 - - - - - - -
18/01:30pm 15.3 SW 14 18 1028.0 - 2.4 - - - - - - -
18/01:00pm 14.5 SW 12 18 1028.3 - 2.4 - - - - - - -
18/12:30pm 15.2 WSW 12 17 1028.6 - 1.6 - - - - - - -
18/12:00pm 14.3 WSW 14 19 1028.9 - 1.6 - - - - - - -
18/11:30am 15.0 SW 11 15 1029.0 - 1.6 - - - - - - -
18/11:00am 14.1 SW 9 13 1029.2 - 1.6 - - - - - - -
18/10:30am 14.0 SSW 11 19 1029.1 - 1.6 - - - - - - -
18/10:00am 14.0 WSW 10 15 1028.9 - 0.8 - - - - - - -
18/09:30am 14.2 WSW 13 19 1028.7 F 5.6 Rain Mostly cloudy 10 1 4.8 7 SW
18/09:00am 14.7 SW 11 15 1028.4 - 5.0 - - - - - - -
18/08:30am 14.6 SW 13 21 1028.3 - 5.0 - - - - - - -
18/08:00am 14.6 SW 11 16 1028.2 - 4.8 - - - - - - -

Other Formats:

Comma delimited format used in spreadsheet applications
http://www.bom.gov.au/fwo/IDT60701/IDT60701.95805.axf

JavaScript Object Notation format (JSON) in row-major order
http://www.bom.gov.au/fwo/IDT60701/IDT60701.95805.json